Time;durP1;ratioP1;P1;durP2;ratioP2;P2;SDS_P1;SDS_P2;PMS_P1;PMS_P2;Temp;Humidity;BMP_temperature;BMP_pressure;BME280_temperature;BME280_humidity;BME280_pressure;Samples;Min_cycle;Max_cycle;Signal;HPM_P1;HPM_P2
2023/05/05 00:02:20;;;;;;;16.90;10.65;;;;;;;15.96;71.14;101411.97;4974712;28;20043;-76
2023/05/05 00:04:45;;;;;;;14.00;10.98;;;;;;;15.94;71.57;101414.69;4974730;28;20031;-90
2023/05/05 00:07:11;;;;;;;14.95;11.02;;;;;;;15.77;72.14;101402.09;4974781;28;20030;-89
2023/05/05 00:09:36;;;;;;;15.88;10.32;;;;;;;15.82;72.39;101417.38;4974346;28;20107;-90
2023/05/05 00:12:01;;;;;;;14.23;10.50;;;;;;;15.54;73.31;101380.38;4957112;28;20042;-90
2023/05/05 00:14:27;;;;;;;14.63;9.93;;;;;;;15.70;74.25;101424.34;4974524;28;20515;-90
2023/05/05 00:16:52;;;;;;;14.98;11.40;;;;;;;15.65;74.66;101426.47;4974367;28;20030;-90
2023/05/05 00:19:17;;;;;;;15.82;11.43;;;;;;;15.60;75.82;101418.97;4974574;28;20205;-90
2023/05/05 00:21:42;;;;;;;14.38;11.48;;;;;;;15.59;77.19;101419.06;4974501;28;20113;-90
2023/05/05 00:24:09;;;;;;;13.07;11.68;;;;;;;15.39;78.06;101389.31;4974240;28;20023;-84
2023/05/05 00:26:34;;;;;;;14.80;11.98;;;;;;;15.70;78.88;101421.72;4974219;28;20181;-90
2023/05/05 00:29:00;;;;;;;16.52;12.95;;;;;;;15.73;79.07;101424.94;4974339;28;20530;-87
2023/05/05 00:31:25;;;;;;;16.65;12.52;;;;;;;15.66;79.38;101417.72;4973834;28;20035;-90
2023/05/05 00:33:51;;;;;;;17.20;12.57;;;;;;;15.71;79.92;101432.03;4974249;28;20348;-89
2023/05/05 00:36:16;;;;;;;16.60;13.65;;;;;;;15.67;80.86;101430.59;4974319;28;20058;-88
2023/05/05 00:38:41;;;;;;;18.08;13.57;;;;;;;15.64;81.16;101432.63;4973732;28;20475;-84
2023/05/05 00:41:07;;;;;;;15.60;13.90;;;;;;;15.53;81.56;101430.75;4974375;28;20443;-89
2023/05/05 00:43:32;;;;;;;15.43;12.60;;;;;;;15.42;82.15;101417.72;4956770;28;20097;-89
2023/05/05 00:46:08;;;;;;;17.20;14.25;;;;;;;15.43;82.27;101432.38;4974316;28;20106;-77
2023/05/05 00:48:33;;;;;;;16.92;14.35;;;;;;;15.28;83.13;101416.13;4974257;28;20030;-82
2023/05/05 00:50:59;;;;;;;17.42;14.68;;;;;;;15.17;83.94;101403.91;4974072;28;20023;-81
2023/05/05 00:53:26;;;;;;;18.77;15.20;;;;;;;15.12;84.45;101403.41;4973843;28;20105;-78
2023/05/05 00:55:52;;;;;;;18.70;15.23;;;;;;;14.98;84.70;101400.16;4956459;28;20054;-78
2023/05/05 00:58:17;;;;;;;18.50;15.10;;;;;;;15.11;85.53;101445.13;4973899;28;20034;-79
2023/05/05 01:00:43;;;;;;;17.80;14.68;;;;;;;14.92;85.76;101423.06;4973760;28;20077;-78
2023/05/05 01:03:09;;;;;;;18.92;15.57;;;;;;;14.96;85.76;101436.69;4973659;28;20391;-77
2023/05/05 01:06:04;;;;;;;18.58;14.85;;;;;;;15.02;85.43;101441.44;4973895;28;20066;-77
2023/05/05 01:08:40;;;;;;;17.25;14.80;;;;;;;15.02;85.95;101440.59;4973736;28;20031;-77
2023/05/05 01:11:16;;;;;;;18.27;13.85;;;;;;;14.95;85.11;101423.81;4973411;28;20110;-77
2023/05/05 01:13:56;;;;;;;15.95;13.50;;;;;;;14.97;84.92;101438.34;4973565;28;20065;-79
2023/05/05 01:16:32;;;;;;;14.20;11.80;;;;;;;14.78;84.53;101412.81;4973713;28;20019;-78
2023/05/05 01:19:13;;;;;;;15.43;11.95;;;;;;;14.91;84.14;101446.56;4973701;28;20026;-78
2023/05/05 01:21:48;;;;;;;15.23;12.95;;;;;;;14.60;84.64;101409.75;4973557;28;20026;-83
2023/05/05 01:24:32;;;;;;;14.45;12.57;;;;;;;14.81;84.94;101454.19;4973093;28;20031;-79
2023/05/05 01:27:29;;;;;;;16.02;13.35;;;;;;;14.73;84.86;101456.50;4956201;28;20023;-79
2023/05/05 01:30:31;;;;;;;15.50;12.63;;;;;;;14.68;85.10;101466.41;4973596;28;20027;-76
2023/05/05 01:33:02;;;;;;;15.27;11.30;;;;;;;14.49;84.72;101424.44;4973558;28;20110;-76
2023/05/05 01:35:32;;;;;;;13.82;10.48;;;;;;;14.56;84.51;101428.28;4973296;28;20130;-77
2023/05/05 01:38:18;;;;;;;13.82;10.70;;;;;;;14.70;83.88;101435.09;4973428;28;20027;-79
2023/05/05 01:41:02;;;;;;;12.50;10.25;;;;;;;14.73;83.13;101433.09;4973167;28;20045;-80
2023/05/05 01:43:31;;;;;;;13.93;9.95;;;;;;;14.75;82.58;101425.19;4975767;28;20027;-83
2023/05/05 01:45:59;;;;;;;11.05;8.30;;;;;;;14.67;81.76;101412.75;4977341;28;20490;-79
2023/05/05 01:48:25;;;;;;;11.32;8.57;;;;;;;14.67;82.88;101441.34;4977103;28;20467;-80
2023/05/05 01:50:52;;;;;;;10.82;7.75;;;;;;;14.57;83.18;101448.97;4976973;28;20081;-79
2023/05/05 01:53:19;;;;;;;10.10;7.82;;;;;;;14.29;82.72;101408.44;4976898;28;20691;-78
2023/05/05 01:55:45;;;;;;;8.73;6.30;;;;;;;14.50;82.01;101459.88;4976660;28;20125;-79
2023/05/05 01:58:13;;;;;;;10.98;7.45;;;;;;;14.44;82.31;101453.31;4977168;28;20041;-77
2023/05/05 02:00:40;;;;;;;9.35;6.85;;;;;;;14.38;82.13;101443.34;4977053;28;20034;-77
2023/05/05 02:03:07;;;;;;;9.77;6.80;;;;;;;14.33;83.25;101445.41;4976737;28;20117;-83
2023/05/05 02:05:37;;;;;;;9.73;6.40;;;;;;;14.25;82.91;101432.94;4976818;28;20471;-78
2023/05/05 02:08:04;;;;;;;9.90;6.63;;;;;;;14.09;83.06;101418.53;4976766;28;20493;-79
2023/05/05 02:10:30;;;;;;;9.80;6.55;;;;;;;14.20;83.24;101453.22;4976490;28;20490;-83
2023/05/05 02:12:59;;;;;;;8.73;6.15;;;;;;;14.18;82.48;101456.88;4976880;28;20023;-80
2023/05/05 02:15:26;;;;;;;10.63;6.00;;;;;;;14.12;83.43;101459.88;4976909;28;20031;-76
2023/05/05 02:17:52;;;;;;;7.75;6.10;;;;;;;13.98;83.48;101445.25;4976611;28;20031;-76
2023/05/05 02:20:19;;;;;;;8.18;5.50;;;;;;;13.81;83.98;101433.38;4976704;28;20126;-77
2023/05/05 02:22:44;;;;;;;10.13;5.85;;;;;;;13.68;83.46;101422.16;4976592;28;20021;-79
2023/05/05 02:25:10;;;;;;;7.93;5.82;;;;;;;13.70;84.48;101451.44;4975973;28;20085;-84
2023/05/05 02:27:40;;;;;;;8.13;5.70;;;;;;;13.58;84.88;101463.47;4976445;28;20434;-83
2023/05/05 02:30:08;;;;;;;9.00;6.07;;;;;;;13.40;85.67;101451.69;4976602;28;20026;-77
2023/05/05 02:32:35;;;;;;;7.80;5.75;;;;;;;13.16;86.49;101443.66;4976257;28;20039;-78
2023/05/05 02:35:11;;;;;;;7.78;5.50;;;;;;;13.26;86.51;101468.13;4976186;28;20479;-77
2023/05/05 02:37:38;;;;;;;9.18;5.80;;;;;;;13.17;86.77;101466.06;4976242;28;20062;-84
2023/05/05 02:40:07;;;;;;;8.70;5.53;;;;;;;13.09;87.20;101463.16;4975882;28;20094;-82
2023/05/05 02:42:39;;;;;;;9.68;5.25;;;;;;;12.95;87.54;101456.22;4958756;28;20026;-80
2023/05/05 02:45:11;;;;;;;8.02;4.95;;;;;;;12.88;87.84;101460.13;4958506;28;20077;-82
2023/05/05 02:47:37;;;;;;;7.25;5.15;;;;;;;12.76;88.12;101456.53;4976082;28;20042;-81
2023/05/05 02:50:04;;;;;;;7.88;5.30;;;;;;;12.76;88.55;101466.91;4976052;28;20049;-83
2023/05/05 02:52:30;;;;;;;7.07;4.40;;;;;;;12.70;88.13;101463.88;4975976;28;20046;-80
2023/05/05 02:54:57;;;;;;;7.32;4.53;;;;;;;12.56;89.09;101459.53;4975573;28;20371;-77
2023/05/05 02:57:30;;;;;;;7.00;4.20;;;;;;;12.67;89.44;101488.22;4975614;28;20038;-83
2023/05/05 03:00:04;;;;;;;8.68;4.20;;;;;;;12.63;89.79;101491.91;4976093;28;20034;-89
2023/05/05 03:02:59;;;;;;;6.38;3.65;;;;;;;12.58;89.61;101484.41;4975693;28;20085;-78
2023/05/05 03:05:34;;;;;;;5.35;3.53;;;;;;;12.55;90.48;101481.19;4975969;28;20023;-90
2023/05/05 03:08:03;;;;;;;7.00;3.35;;;;;;;12.48;90.88;101472.13;4975783;28;20475;-88
2023/05/05 03:10:33;;;;;;;5.88;3.47;;;;;;;12.40;91.09;101480.38;4958389;28;20054;-83
2023/05/05 03:13:01;;;;;;;7.45;3.65;;;;;;;12.38;91.17;101481.38;4975519;28;20050;-87
2023/05/05 03:15:33;;;;;;;7.43;3.55;;;;;;;12.35;91.24;101475.44;4975477;28;20023;-90
2023/05/05 03:18:01;;;;;;;5.18;3.38;;;;;;;12.07;91.48;101450.38;4975806;28;20046;-88
2023/05/05 03:20:27;;;;;;;7.20;3.65;;;;;;;12.21;91.96;101482.41;4958047;28;20042;-87
2023/05/05 03:22:53;;;;;;;5.93;3.60;;;;;;;12.13;92.20;101477.66;4977643;28;20026;-77
2023/05/05 03:25:19;;;;;;;5.18;3.50;;;;;;;11.97;92.55;101464.78;4975568;28;20038;-74
2023/05/05 03:27:44;;;;;;;6.80;3.75;;;;;;;12.08;92.99;101490.03;4975169;28;20114;-75
2023/05/05 03:30:10;;;;;;;5.68;3.25;;;;;;;11.94;93.55;101477.06;4975214;28;20031;-75
2023/05/05 03:32:36;;;;;;;5.63;3.50;;;;;;;12.00;93.42;101495.69;4975371;28;20431;-75
2023/05/05 03:35:01;;;;;;;5.50;3.50;;;;;;;11.99;93.97;101495.75;4975287;28;20035;-75
2023/05/05 03:37:26;;;;;;;6.45;3.40;;;;;;;11.81;94.21;101469.19;4975125;28;20339;-76
2023/05/05 03:39:51;;;;;;;6.82;3.65;;;;;;;11.88;94.50;101490.34;4975209;28;20046;-78
2023/05/05 03:42:17;;;;;;;5.03;3.20;;;;;;;11.83;94.95;101489.81;4974875;28;20072;-76
2023/05/05 03:44:42;;;;;;;7.10;4.15;;;;;;;11.63;95.04;101465.03;4974764;28;20117;-76
2023/05/05 03:47:08;;;;;;;7.65;3.90;;;;;;;11.75;94.99;101487.63;4975039;28;20057;-76
2023/05/05 03:49:33;;;;;;;7.97;4.40;;;;;;;11.62;95.75;101468.56;4975050;28;20041;-75
2023/05/05 03:51:58;;;;;;;7.78;4.95;;;;;;;11.77;95.43;101509.06;4975012;28;20022;-74
2023/05/05 03:54:23;;;;;;;8.68;5.03;;;;;;;11.70;95.96;101510.31;4975004;28;20046;-76
2023/05/05 03:56:49;;;;;;;10.90;5.95;;;;;;;11.44;96.63;101481.59;4974616;28;20034;-76
2023/05/05 03:59:14;;;;;;;9.57;6.32;;;;;;;11.63;96.74;101509.84;4974630;28;20491;-76
2023/05/05 04:01:40;;;;;;;8.57;5.60;;;;;;;11.59;96.92;101513.50;4974373;28;20055;-77
2023/05/05 04:04:05;;;;;;;9.32;6.10;;;;;;;11.36;97.30;101485.53;4974735;28;20106;-76
2023/05/05 04:06:31;;;;;;;10.75;6.82;;;;;;;11.32;97.58;101484.88;4973901;28;20022;-76
2023/05/05 04:08:56;;;;;;;10.13;7.55;;;;;;;11.22;97.51;101478.56;4974672;28;20023;-75
2023/05/05 04:11:22;;;;;;;12.57;7.90;;;;;;;11.42;97.62;101505.88;4957075;28;20058;-75
2023/05/05 04:13:48;;;;;;;13.07;8.57;;;;;;;11.53;97.69;101524.22;4974199;28;20030;-75
2023/05/05 04:16:24;;;;;;;11.38;8.40;;;;;;;11.55;98.15;101534.47;5226916;23;20059;31
2023/05/05 04:18:50;;;;;;;13.38;8.07;;;;;;;11.32;98.46;101492.63;4914446;29;20131;-89
2023/05/05 04:21:15;;;;;;;13.57;8.80;;;;;;;11.51;98.85;101520.91;4936018;29;20106;-86
2023/05/05 04:23:40;;;;;;;13.70;10.20;;;;;;;11.57;99.28;101528.28;4935789;29;20055;-90
2023/05/05 04:26:06;;;;;;;12.25;9.68;;;;;;;11.44;99.24;101511.81;4935999;29;20038;-89
2023/05/05 04:28:31;;;;;;;13.20;10.02;;;;;;;11.43;99.53;101502.38;4918929;29;20051;-86
2023/05/05 04:30:58;;;;;;;14.48;11.45;;;;;;;11.56;99.76;101508.53;4918564;29;20036;-87
2023/05/05 04:33:23;;;;;;;13.20;10.65;;;;;;;11.74;99.59;101537.72;4935700;29;20031;-91
2023/05/05 04:35:48;;;;;;;13.40;10.60;;;;;;;11.80;99.58;101536.53;4935674;29;20554;-91
2023/05/05 04:38:14;;;;;;;16.45;11.93;;;;;;;11.84;99.45;101538.88;4935751;29;20035;-89
2023/05/05 04:40:40;;;;;;;15.23;11.90;;;;;;;11.87;99.39;101543.88;4935853;29;20349;-76
2023/05/05 04:43:06;;;;;;;15.70;12.30;;;;;;;11.89;99.97;101542.03;4935671;29;20031;-90
2023/05/05 04:45:31;;;;;;;15.50;12.68;;;;;;;11.91;100.00;101544.56;4934316;29;20036;-87
2023/05/05 04:47:57;;;;;;;17.00;12.27;;;;;;;11.93;99.53;101533.19;4935637;29;20032;-90
2023/05/05 04:50:22;;;;;;;14.60;11.77;;;;;;;11.87;99.48;101522.34;4918650;29;20031;-90
2023/05/05 04:52:48;;;;;;;15.52;12.32;;;;;;;11.96;99.76;101545.09;4935646;29;20439;-89
2023/05/05 04:55:13;;;;;;;16.02;12.10;;;;;;;11.95;99.50;101551.22;4918106;29;20039;-90
2023/05/05 04:57:38;;;;;;;15.23;12.60;;;;;;;11.96;99.56;101548.53;4935506;29;20130;-87
2023/05/05 05:00:05;;;;;;;16.33;13.07;;;;;;;11.99;99.69;101553.53;4935595;29;20020;-84
2023/05/05 05:02:30;;;;;;;15.88;12.35;;;;;;;11.85;100.00;101519.00;4934886;29;20036;-88
2023/05/05 05:04:55;;;;;;;15.25;12.30;;;;;;;12.02;99.14;101537.00;4935417;29;20046;-89
2023/05/05 05:07:21;;;;;;;15.80;12.35;;;;;;;12.17;99.26;101541.28;4935607;29;20490;-75
2023/05/05 05:09:46;;;;;;;15.80;11.98;;;;;;;12.30;98.53;101525.88;4934006;29;20032;-76
2023/05/05 05:12:11;;;;;;;15.20;12.68;;;;;;;12.70;97.26;101539.88;4935279;29;20126;-76
2023/05/05 05:14:38;;;;;;;13.52;10.85;;;;;;;13.29;94.08;101519.00;4935274;29;20106;-76
2023/05/05 05:17:04;;;;;;;13.57;10.88;;;;;;;13.80;90.79;101521.75;4936024;29;20126;-76
2023/05/05 05:19:29;;;;;;;14.55;11.85;;;;;;;13.96;89.82;101533.63;4941678;29;20062;-77
2023/05/05 05:21:54;;;;;;;13.90;10.85;;;;;;;14.23;87.91;101522.31;4941635;29;20475;-78
2023/05/05 05:24:20;;;;;;;13.13;10.95;;;;;;;14.46;86.47;101532.03;4941665;29;20039;-74
2023/05/05 05:26:45;;;;;;;14.82;10.93;;;;;;;14.48;86.62;101535.38;4941498;29;20024;-77
2023/05/05 05:29:10;;;;;;;14.10;10.82;;;;;;;14.36;86.75;101533.56;4941635;29;20028;-76
2023/05/05 05:31:36;;;;;;;12.82;10.32;;;;;;;14.40;86.16;101535.00;4941626;29;20087;-76
2023/05/05 05:34:01;;;;;;;14.55;10.35;;;;;;;14.27;86.80;101524.63;4941514;29;20034;-75
2023/05/05 05:36:26;;;;;;;14.20;11.65;;;;;;;15.09;85.88;101522.47;4941558;29;20490;-76
2023/05/05 05:38:52;;;;;;;14.15;11.05;;;;;;;16.51;80.28;101536.25;4941442;29;20028;-75
2023/05/05 05:41:17;;;;;;;13.57;10.23;;;;;;;17.87;73.41;101515.00;4940027;29;20036;-77
2023/05/05 05:43:42;;;;;;;13.35;10.10;;;;;;;19.36;66.89;101537.94;4941504;29;20368;-77
2023/05/05 05:46:08;;;;;;;14.18;10.27;;;;;;;20.51;61.34;101543.25;4941317;29;20024;-77
2023/05/05 05:48:33;;;;;;;14.90;9.63;;;;;;;21.13;58.56;101507.53;4941659;29;20032;-77
2023/05/05 05:50:58;;;;;;;12.70;9.57;;;;;;;21.99;56.35;101542.00;4941352;29;20444;-78
2023/05/05 05:53:24;;;;;;;12.57;9.63;;;;;;;22.91;52.85;101551.94;4941219;29;20032;-79
2023/05/05 05:55:49;;;;;;;11.95;9.90;;;;;;;23.27;50.19;101568.31;4941448;29;20059;-77
2023/05/05 05:58:16;;;;;;;11.88;9.63;;;;;;;23.70;49.19;101558.53;4941033;29;20027;-80
2023/05/05 06:00:41;;;;;;;14.82;9.98;;;;;;;24.09;47.83;101578.94;4924440;29;20055;-78
2023/05/05 06:03:06;;;;;;;12.38;9.85;;;;;;;24.20;47.47;101579.44;4941180;29;20483;-76
2023/05/05 06:05:31;;;;;;;12.45;9.63;;;;;;;24.41;45.63;101567.56;4941221;29;20035;-80
2023/05/05 06:07:57;;;;;;;12.38;9.85;;;;;;;24.63;45.70;101579.19;4924115;29;20028;-76
2023/05/05 06:10:22;;;;;;;13.40;9.93;;;;;;;24.99;44.43;101588.31;4924181;29;20024;-75
2023/05/05 06:12:47;;;;;;;13.18;10.27;;;;;;;25.06;44.36;101593.72;4940943;29;20079;-76
2023/05/05 06:15:13;;;;;;;12.88;10.05;;;;;;;25.18;43.51;101592.38;4940988;29;20463;-78
2023/05/05 06:17:38;;;;;;;16.23;10.45;;;;;;;25.20;43.37;101594.84;4941026;29;20054;-76
2023/05/05 06:20:04;;;;;;;14.50;9.65;;;;;;;25.49;43.35;101596.81;4941318;29;20499;-79
2023/05/05 06:22:30;;;;;;;13.73;10.30;;;;;;;25.89;42.92;101569.25;4941254;29;20027;-76
2023/05/05 06:24:55;;;;;;;13.27;10.27;;;;;;;26.51;42.25;101604.22;4940845;29;20036;-79
2023/05/05 06:27:20;;;;;;;13.43;10.50;;;;;;;26.41;42.01;101608.97;4940960;29;20039;-80
2023/05/05 06:29:46;;;;;;;14.55;11.00;;;;;;;26.08;42.08;101581.97;4936704;29;20067;-76
2023/05/05 06:32:12;;;;;;;13.65;11.15;;;;;;;26.39;41.59;101579.22;4938069;29;20027;-76
2023/05/05 06:34:38;;;;;;;14.80;11.23;;;;;;;26.24;41.65;101596.84;4937824;29;20028;-78
2023/05/05 06:37:03;;;;;;;13.27;10.00;;;;;;;25.86;42.52;101601.34;4938164;29;20115;-77
2023/05/05 06:39:28;;;;;;;17.13;11.40;;;;;;;26.21;42.20;101602.53;4937955;29;20356;-80
2023/05/05 06:41:54;;;;;;;14.75;11.00;;;;;;;26.40;41.88;101609.16;4942399;29;20535;-76
2023/05/05 06:44:19;;;;;;;13.40;9.95;;;;;;;26.65;41.65;101605.25;4938294;29;20526;-75
2023/05/05 06:46:44;;;;;;;14.95;10.85;;;;;;;26.55;41.60;101612.66;4937555;29;20090;-74
2023/05/05 06:49:10;;;;;;;13.38;10.13;;;;;;;26.50;41.25;101607.88;4937576;29;20038;-76
2023/05/05 06:51:35;;;;;;;12.27;9.85;;;;;;;26.60;41.53;101612.91;4937899;29;20027;-72
2023/05/05 06:54:00;;;;;;;11.65;9.13;;;;;;;25.89;41.95;101574.53;4937410;29;20040;-81
2023/05/05 06:56:25;;;;;;;12.23;9.07;;;;;;;25.51;42.46;101608.84;4937723;29;20395;-75
2023/05/05 06:58:51;;;;;;;12.27;8.73;;;;;;;25.20;42.64;101569.22;4937773;29;20509;-76
2023/05/05 07:01:16;;;;;;;12.43;8.95;;;;;;;25.65;42.23;101604.63;4937359;29;20380;-76
2023/05/05 07:03:42;;;;;;;13.68;9.27;;;;;;;25.92;42.44;101611.22;4937343;29;20067;-75
2023/05/05 07:06:08;;;;;;;12.43;8.65;;;;;;;25.29;42.56;101575.28;4937455;29;20023;-77
2023/05/05 07:08:33;;;;;;;11.98;8.48;;;;;;;25.41;42.56;101601.16;4937405;29;20049;-75
2023/05/05 07:10:59;;;;;;;12.10;8.50;;;;;;;25.58;42.11;101608.97;4937491;29;20062;-75
2023/05/05 07:13:25;;;;;;;12.80;8.68;;;;;;;26.02;42.46;101614.44;4937338;29;20034;-81
2023/05/05 07:15:50;;;;;;;13.88;9.57;;;;;;;26.22;40.77;101577.69;4937425;29;20039;-75
2023/05/05 07:18:16;;;;;;;12.13;8.70;;;;;;;26.97;40.00;101611.16;4936852;29;20054;-76
2023/05/05 07:20:43;;;;;;;12.65;8.95;;;;;;;26.28;39.81;101600.81;4937143;29;20059;-75
2023/05/05 07:23:10;;;;;;;11.82;9.02;;;;;;;24.82;42.79;101619.25;4937060;29;20055;-76
2023/05/05 07:25:35;;;;;;;13.07;9.70;;;;;;;22.95;47.03;101619.13;4937217;29;20051;-75
2023/05/05 07:28:01;;;;;;;14.15;9.57;;;;;;;21.82;50.23;101603.31;4920167;29;20517;-72
2023/05/05 07:30:26;;;;;;;11.30;9.32;;;;;;;21.06;53.03;101608.91;4936950;29;20032;-83
2023/05/05 07:32:51;;;;;;;12.52;9.80;;;;;;;20.71;55.04;101620.09;4936727;29;20079;-86
2023/05/05 07:35:17;;;;;;;13.90;10.48;;;;;;;20.31;56.64;101614.09;4936636;29;20031;-86
2023/05/05 07:37:45;;;;;;;15.00;9.73;;;;;;;20.24;56.71;101623.47;4939283;29;20035;-83
2023/05/05 07:40:11;;;;;;;12.13;8.70;;;;;;;20.45;56.45;101627.75;4937160;29;20028;-85
2023/05/05 07:42:37;;;;;;;12.63;8.05;;;;;;;20.74;54.95;101615.38;4919833;29;20117;-77
2023/05/05 07:45:03;;;;;;;11.75;7.47;;;;;;;20.79;53.22;101588.72;4936560;29;20081;-83
2023/05/05 07:47:28;;;;;;;12.07;7.47;;;;;;;20.52;53.61;101571.13;4936163;29;20051;-84
2023/05/05 07:49:54;;;;;;;10.82;7.47;;;;;;;20.60;54.17;101614.06;4936541;29;20028;-84
2023/05/05 07:52:19;;;;;;;10.32;7.40;;;;;;;20.45;55.06;101568.28;4936471;29;20035;-80
2023/05/05 07:54:45;;;;;;;9.35;6.82;;;;;;;20.86;54.37;101609.00;4936432;29;20057;-83
2023/05/05 07:57:10;;;;;;;12.70;7.47;;;;;;;20.76;53.98;101613.47;4936339;29;20031;-77
2023/05/05 07:59:37;;;;;;;11.60;7.40;;;;;;;20.51;54.98;101608.84;4936357;29;20087;-77
2023/05/05 08:02:02;;;;;;;10.98;7.80;;;;;;;20.26;57.18;101611.06;4918848;29;20553;-80
2023/05/05 08:04:28;;;;;;;10.77;7.72;;;;;;;20.39;57.51;101604.69;4936325;29;20036;-78
2023/05/05 08:06:53;;;;;;;10.20;7.18;;;;;;;20.86;57.68;101616.88;4936329;29;20036;-78
2023/05/05 08:09:18;;;;;;;11.18;7.28;;;;;;;21.09;56.16;101598.13;4918633;29;20050;-75
2023/05/05 08:11:44;;;;;;;9.98;7.18;;;;;;;21.44;55.98;101600.84;4936133;29;20108;-74
2023/05/05 08:14:09;;;;;;;8.88;5.72;;;;;;;21.68;55.24;101605.50;4936098;29;20063;-74
2023/05/05 08:16:34;;;;;;;11.35;6.65;;;;;;;21.63;52.97;101593.78;4936377;29;20055;-73
2023/05/05 08:19:01;;;;;;;9.95;6.32;;;;;;;21.64;52.35;101612.06;4935358;29;20571;-81
2023/05/05 08:21:26;;;;;;;11.32;6.63;;;;;;;21.49;54.10;101579.38;4936136;29;20090;-75
2023/05/05 08:23:51;;;;;;;10.35;6.55;;;;;;;21.77;52.90;101598.53;4935931;29;20467;-75
2023/05/05 08:26:17;;;;;;;11.27;7.13;;;;;;;21.95;53.28;101617.75;4936054;29;20060;-76
2023/05/05 08:28:42;;;;;;;9.98;6.93;;;;;;;22.02;52.64;101628.47;4935832;29;20024;-76
2023/05/05 08:31:07;;;;;;;11.25;7.50;;;;;;;21.89;52.16;101620.97;4935601;29;20023;-76
2023/05/05 08:33:33;;;;;;;9.85;7.38;;;;;;;21.77;54.58;101624.81;4935522;29;20067;-74
2023/05/05 08:35:58;;;;;;;11.35;7.82;;;;;;;21.43;54.69;101582.56;4935557;29;20055;-76
2023/05/05 08:38:23;;;;;;;11.18;7.57;;;;;;;21.86;54.96;101618.66;4935869;29;20028;-90
2023/05/05 08:40:50;;;;;;;12.45;8.70;;;;;;;21.95;56.06;101623.00;4935639;29;20024;-78
2023/05/05 08:43:19;;;;;;;10.38;7.15;;;;;;;21.90;53.47;101608.66;4935498;29;20063;-79
2023/05/05 08:45:45;;;;;;;8.48;6.03;;;;;;;21.79;53.90;101590.47;4918126;29;20062;-79
2023/05/05 08:48:11;;;;;;;10.05;6.47;;;;;;;21.64;54.40;101598.09;4935535;29;20460;-79
2023/05/05 08:50:38;;;;;;;9.75;6.68;;;;;;;21.61;54.64;101627.28;4935418;29;20514;-79
2023/05/05 08:53:15;;;;;;;8.63;5.15;;;;;;;21.19;55.39;101610.22;4935216;29;20394;-79
2023/05/05 08:55:49;;;;;;;11.75;6.07;;;;;;;21.20;57.48;101632.06;4935569;29;20039;-83
2023/05/05 08:58:17;;;;;;;11.15;6.05;;;;;;;21.10;56.71;101631.28;4935212;29;20028;-75
2023/05/05 09:00:44;;;;;;;8.38;5.10;;;;;;;21.08;55.19;101630.59;4935173;29;20035;-75
2023/05/05 09:03:10;;;;;;;7.95;4.75;;;;;;;21.16;55.07;101631.53;4935314;29;20063;-76
2023/05/05 09:05:35;;;;;;;7.55;4.80;;;;;;;21.09;56.15;101621.75;4935532;29;20035;-77
2023/05/05 09:08:01;;;;;;;8.65;4.90;;;;;;;21.14;55.63;101622.16;4935400;29;20036;-76
2023/05/05 09:10:27;;;;;;;9.73;4.93;;;;;;;21.17;57.94;101619.22;4935275;29;20024;-75
2023/05/05 09:12:53;;;;;;;8.30;4.95;;;;;;;21.12;55.01;101619.66;4935216;29;20052;-78
2023/05/05 09:15:18;;;;;;;7.85;4.72;;;;;;;20.86;56.56;101582.75;4935130;29;20105;-81
2023/05/05 09:17:45;;;;;;;11.57;5.43;;;;;;;21.25;56.32;101621.13;4934876;29;20496;-80
2023/05/05 09:20:12;;;;;;;10.55;5.15;;;;;;;21.15;55.77;101598.38;4935452;29;20036;-78
2023/05/05 09:22:43;;;;;;;11.85;5.25;;;;;;;21.32;55.70;101609.91;4935341;29;20099;-76
2023/05/05 09:25:10;;;;;;;8.05;3.10;;;;;;;21.73;54.71;101640.06;4935261;29;20043;-76
2023/05/05 09:27:40;;;;;;;9.10;3.63;;;;;;;21.73;53.61;101634.81;4935138;29;20024;-76
2023/05/05 09:30:07;;;;;;;5.78;3.42;;;;;;;21.72;52.64;101640.19;4935277;29;20032;-76
2023/05/05 09:32:43;;;;;;;6.57;3.53;;;;;;;21.83;53.14;101640.00;4918196;29;20032;-77
2023/05/05 09:35:08;;;;;;;6.07;2.97;;;;;;;21.64;52.91;101621.75;4934887;29;20090;-77
2023/05/05 09:37:33;;;;;;;7.13;2.60;;;;;;;21.53;52.04;101641.16;4935220;29;20531;-77
2023/05/05 09:40:02;;;;;;;4.57;2.42;;;;;;;21.33;54.75;101629.94;4935060;29;20491;-80
2023/05/05 09:42:27;;;;;;;5.10;2.20;;;;;;;21.12;54.74;101634.59;4934784;29;20035;-76
2023/05/05 09:44:53;;;;;;;4.22;1.70;;;;;;;20.98;54.74;101640.31;4934933;29;20027;-78
2023/05/05 09:47:19;;;;;;;4.90;1.75;;;;;;;20.86;54.27;101629.19;4934910;29;20032;-77
2023/05/05 09:49:56;;;;;;;5.75;2.00;;;;;;;20.65;54.72;101589.16;4934849;29;20035;-76
2023/05/05 09:52:22;;;;;;;4.30;2.15;;;;;;;20.93;53.99;101625.00;4935051;29;20036;-76
2023/05/05 09:54:53;;;;;;;8.55;2.42;;;;;;;21.04;54.97;101621.34;4934971;29;20070;-77
2023/05/05 09:57:30;;;;;;;6.47;2.30;;;;;;;21.09;54.25;101608.63;4934842;29;20030;-75
2023/05/05 10:00:00;;;;;;;3.38;1.20;;;;;;;21.08;52.16;101614.84;4934886;29;20087;-77
2023/05/05 10:02:44;;;;;;;2.88;1.00;;;;;;;21.24;53.54;101627.31;4934862;29;20487;-80
2023/05/05 10:05:11;;;;;;;2.10;0.95;;;;;;;21.17;52.88;101627.09;4936689;29;20035;-76
2023/05/05 10:07:38;;;;;;;4.40;1.33;;;;;;;21.26;53.24;101623.63;4938838;29;20034;-75
2023/05/05 10:10:06;;;;;;;5.55;2.25;;;;;;;21.09;54.26;101604.19;4938437;29;20106;-77
2023/05/05 10:12:35;;;;;;;4.22;2.00;;;;;;;21.25;53.94;101629.84;4938355;29;20543;-76
2023/05/05 10:15:03;;;;;;;6.63;2.30;;;;;;;21.17;54.26;101619.22;4940919;29;20079;-75
2023/05/05 10:17:42;;;;;;;5.40;2.20;;;;;;;21.13;54.67;101626.56;4938815;29;20119;-74
2023/05/05 10:20:10;;;;;;;5.50;2.20;;;;;;;21.01;57.38;101624.28;4938390;29;20040;-78
2023/05/05 10:22:38;;;;;;;8.30;2.70;;;;;;;20.84;57.76;101626.72;4938139;29;20078;-76
2023/05/05 10:25:12;;;;;;;6.32;2.65;;;;;;;20.39;59.65;101615.19;4937801;29;20032;-75
2023/05/05 10:27:49;;;;;;;8.07;3.75;;;;;;;20.14;63.40;101622.66;4938387;29;20039;-74
2023/05/05 10:30:31;;;;;;;10.68;3.80;;;;;;;19.83;65.14;101621.97;4938004;29;20038;-76
2023/05/05 10:33:04;;;;;;;9.52;4.70;;;;;;;19.31;68.76;101621.31;4937950;29;20032;-77
2023/05/05 10:35:31;;;;;;;9.77;4.72;;;;;;;19.08;70.64;101638.22;4937603;29;20333;-76
2023/05/05 10:37:57;;;;;;;10.55;5.28;;;;;;;18.68;73.42;101610.22;4937591;29;20066;-73
2023/05/05 10:40:23;;;;;;;11.45;5.10;;;;;;;18.63;77.04;101630.66;4937722;29;20063;-78
2023/05/05 10:42:50;;;;;;;9.55;5.30;;;;;;;18.30;79.50;101605.56;4937900;29;20424;-77
2023/05/05 10:45:15;;;;;;;8.43;5.10;;;;;;;18.28;81.89;101639.63;4937774;29;20506;-75
2023/05/05 10:47:43;;;;;;;8.40;4.65;;;;;;;18.27;82.10;101645.00;4937563;29;20028;-77
2023/05/05 10:50:36;;;;;;;10.25;5.32;;;;;;;18.16;80.85;101655.50;4937778;29;20039;-76
2023/05/05 10:53:20;;;;;;;9.55;5.60;;;;;;;17.91;84.24;101660.13;4937719;29;20383;-77
2023/05/05 10:55:53;;;;;;;10.05;5.07;;;;;;;17.71;85.67;101627.78;4937881;29;20039;-75
2023/05/05 10:58:32;;;;;;;12.82;6.53;;;;;;;17.89;85.26;101663.81;4937674;29;20031;-77
2023/05/05 11:00:57;;;;;;;9.68;5.95;;;;;;;17.63;85.37;101645.81;4937726;29;20020;-77
2023/05/05 11:03:22;;;;;;;9.32;5.72;;;;;;;17.63;88.10;101665.88;4937563;29;20028;-78
2023/05/05 11:06:06;;;;;;;10.55;5.72;;;;;;;17.72;85.93;101662.56;4937249;29;20479;-77
2023/05/05 11:08:39;;;;;;;8.40;4.00;;;;;;;17.33;84.56;101617.72;4937426;29;20369;-80
2023/05/05 11:11:05;;;;;;;7.40;4.25;;;;;;;17.47;87.56;101663.63;4937517;29;20026;-77
2023/05/05 11:13:31;;;;;;;4.53;2.33;;;;;;;16.94;84.43;101665.19;4937238;29;20032;-78
2023/05/05 11:15:58;;;;;;;3.95;1.67;;;;;;;16.34;84.95;101661.84;4936913;29;20514;-78
2023/05/05 11:18:37;;;;;;;3.83;1.50;;;;;;;15.83;85.71;101666.44;4919990;29;20130;-77
2023/05/05 11:21:03;;;;;;;4.53;1.45;;;;;;;15.61;90.65;101682.75;4936981;29;20489;-77